Doylestown, Ohio
Current Conditions -  °F | °C
As of 4:56 AM on Saturday 01 Nov 2014 (Local Time) from KBJJ Reporting Station
Light Rain Light Rain  
Wind Chill: 37°   Ceiling: 700
Heat Index: 43°   Visibility: 10mi
Dew Point: 39°   Wind: 10mph
Humidity: 86%   Direction: 10°N
Pressure: 29.96"   Gusts: NA
Location:  40.97°N, 81.7°W
Report Text: KBJJ 010856Z AUTO 01009KT 10SM -RA BKN007 OVC012 06/04 A2996 RMK AO2 CIG 006V009 SLP151 P0001 60006 T00610039 53012 TSNO
Loading
Personal Weather Stations






























Interactive Weather Map
Tropical Storm Tracking
New forecast layout! Learn more

10-Day Weather Forecast

Advertisements
Track Severe Weather on mobile